OOMS/MCT METAR and TAF weather

Enter ICAO airport designator
Station Type Date Time Source
OOMS METAR 2021/10/22 18:50 UTC NOAA

OOMS 221850Z 08001KT CAVOK 29/23 Q1012 NOSIG


Station Type Date Time Source
OOMS Decoded METAR 2021/10/22 18:50 UTC NOAA

Seeb, International Airport, Oman (OOMS) 23-35N 058-17E 17M
Oct 22, 2021 - 02:50 PM EDT / 2021.10.22 1850 UTC
Wind: from the E (080 degrees) at 1 MPH (1 KT):0
Visibility: greater than 7 mile(s):0
Temperature: 84 F (29 C)
Dew Point: 73 F (23 C)
Relative Humidity: 70%
Pressure (altimeter): 29.88 in. Hg (1012 hPa)
ob: OOMS 221850Z 08001KT CAVOK 29/23 Q1012 NOSIG
cycle: 19

Station Type Date Time Source
OOMS TAF 2021/10/22 18:06 UTC NOAA

TAF TAF OOMS 221700Z 2218/2324 VRB02KT 8000 FEW025 PROB30
TEMPO 2221/2303 4000 BR BKN010
BECMG 2306/2308 05010KT
BECMG 2318/2320 VRB02KT

Example: see airport list